Time;durP1;ratioP1;P1;durP2;ratioP2;P2;SDS_P1;SDS_P2;PMS_P1;PMS_P2;Temp;Humidity;BMP_temperature;BMP_pressure;BME280_temperature;BME280_humidity;BME280_pressure;Samples;Min_cycle;Max_cycle;Signal;HPM_P1;HPM_P2
2023/03/02 00:02:08;;;;;;;12.20;6.45;;;5.80;59.60;;;;;;5023923;28;20083;-69
2023/03/02 00:04:39;;;;;;;10.40;5.53;;;5.80;60.20;;;;;;5027686;28;20056;-69
2023/03/02 00:07:09;;;;;;;8.32;5.53;;;5.70;60.40;;;;;;5025271;28;20051;-64
2023/03/02 00:09:35;;;;;;;12.20;6.25;;;5.70;61.00;;;;;;5031809;28;20083;-69
2023/03/02 00:12:03;;;;;;;7.45;5.18;;;5.60;60.80;;;;;;5013763;28;20036;-63
2023/03/02 00:14:29;;;;;;;8.60;5.15;;;5.60;61.20;;;;;;5013893;28;20030;-69
2023/03/02 00:16:55;;;;;;;10.30;6.18;;;5.60;61.50;;;;;;5021720;28;20041;-67
2023/03/02 00:19:21;;;;;;;8.02;5.78;;;5.50;61.60;;;;;;5013860;28;20029;-68
2023/03/02 00:21:46;;;;;;;11.10;6.53;;;5.50;61.90;;;;;;5018298;28;20095;-68
2023/03/02 00:24:14;;;;;;;11.60;5.63;;;5.40;62.20;;;;;;5021185;28;20455;-68
2023/03/02 00:26:40;;;;;;;11.57;7.03;;;5.40;62.40;;;;;;5034806;28;20036;-64
2023/03/02 00:29:06;;;;;;;12.65;7.55;;;5.30;62.70;;;;;;5038104;28;20029;-62
2023/03/02 00:31:32;;;;;;;11.00;7.20;;;5.30;63.30;;;;;;5035465;28;20045;-62
2023/03/02 00:33:58;;;;;;;10.77;6.72;;;5.20;63.50;;;;;;5037757;28;20468;-63
2023/03/02 00:36:24;;;;;;;12.80;6.85;;;5.20;64.00;;;;;;5026781;28;20033;-64
2023/03/02 00:38:51;;;;;;;14.75;7.07;;;5.10;64.30;;;;;;5039841;28;20025;-62
2023/03/02 00:41:20;;;;;;;17.15;8.95;;;5.10;64.60;;;;;;5028851;28;20033;-62
2023/03/02 00:43:46;;;;;;;12.75;8.68;;;5.10;64.70;;;;;;5029298;28;20051;-64
2023/03/02 00:46:17;;;;;;;16.95;8.65;;;5.10;64.80;;;;;;5028594;28;20025;-63
2023/03/02 00:48:44;;;;;;;13.98;9.88;;;5.10;64.80;;;;;;5035708;28;20108;-63
2023/03/02 00:51:10;;;;;;;14.20;8.52;;;5.10;65.30;;;;;;5029962;28;20017;-63
2023/03/02 00:53:37;;;;;;;16.58;8.15;;;5.20;65.50;;;;;;5040114;28;20037;-63
2023/03/02 00:56:04;;;;;;;13.25;7.32;;;5.20;65.40;;;;;;5034112;28;20380;-64
2023/03/02 00:58:30;;;;;;;14.65;8.85;;;5.20;65.70;;;;;;5038245;28;20052;-63
2023/03/02 01:00:57;;;;;;;15.68;8.85;;;5.10;65.70;;;;;;5037644;28;20040;-63
2023/03/02 01:03:23;;;;;;;14.93;8.27;;;5.10;65.60;;;;;;5035034;28;20116;-64
2023/03/02 01:05:54;;;;;;;15.60;7.95;;;5.10;65.80;;;;;;5024486;28;20080;-64
2023/03/02 01:08:20;;;;;;;15.13;8.10;;;5.10;66.20;;;;;;5012149;28;20397;-63
2023/03/02 01:10:46;;;;;;;16.40;9.30;;;5.00;66.30;;;;;;5011123;28;20099;-64
2023/03/02 01:13:12;;;;;;;13.68;8.13;;;5.00;66.50;;;;;;5038017;28;20155;-63
2023/03/02 01:15:38;;;;;;;15.55;7.32;;;5.00;66.60;;;;;;5040786;28;20557;-65
2023/03/02 01:18:03;;;;;;;16.17;9.68;;;5.00;66.50;;;;;;5010958;28;20032;-62
2023/03/02 01:20:29;;;;;;;16.85;9.38;;;5.00;66.60;;;;;;5030759;28;20033;-62
2023/03/02 01:22:55;;;;;;;19.13;7.70;;;5.00;66.90;;;;;;5038556;28;20129;-62
2023/03/02 01:25:21;;;;;;;17.00;8.38;;;5.00;66.80;;;;;;5032099;28;20254;-64
2023/03/02 01:27:47;;;;;;;11.70;8.18;;;4.90;67.00;;;;;;5030799;28;20079;-69
2023/03/02 01:30:13;;;;;;;14.88;8.32;;;4.90;67.30;;;;;;5028784;28;20109;-63
2023/03/02 01:32:39;;;;;;;15.10;9.48;;;4.90;67.30;;;;;;5039982;28;20110;-62
2023/03/02 01:35:05;;;;;;;18.75;9.25;;;4.90;67.50;;;;;;4998416;28;20053;-62
2023/03/02 01:37:30;;;;;;;15.23;8.93;;;4.90;67.50;;;;;;5011047;28;20362;-68
2023/03/02 01:39:56;;;;;;;15.18;10.30;;;4.90;67.30;;;;;;5028494;28;20037;-67
2023/03/02 01:42:22;;;;;;;12.98;8.38;;;4.90;67.40;;;;;;5030803;28;20365;-67
2023/03/02 01:44:50;;;;;;;18.52;8.15;;;4.90;67.40;;;;;;5033003;28;20378;-63
2023/03/02 01:47:27;;;;;;;14.52;8.48;;;4.90;67.30;;;;;;5023799;28;20025;-63
2023/03/02 01:49:58;;;;;;;16.38;9.52;;;4.90;67.30;;;;;;5020131;28;20025;-68
2023/03/02 01:52:25;;;;;;;16.30;9.25;;;4.80;67.50;;;;;;5030510;28;20033;-68
2023/03/02 01:54:55;;;;;;;16.77;9.35;;;4.80;67.40;;;;;;5016309;28;20021;-67
2023/03/02 01:57:29;;;;;;;14.40;8.98;;;4.80;67.60;;;;;;5028987;28;20121;-68
2023/03/02 02:00:07;;;;;;;13.38;7.57;;;4.70;67.60;;;;;;5034670;28;20546;-63
2023/03/02 02:02:33;;;;;;;16.67;10.38;;;4.70;67.60;;;;;;5029903;28;20431;-63
2023/03/02 02:04:59;;;;;;;16.60;9.63;;;4.70;67.90;;;;;;4993616;28;20033;-63
2023/03/02 02:07:26;;;;;;;14.73;8.82;;;4.70;67.90;;;;;;5032290;28;20083;-62
2023/03/02 02:09:53;;;;;;;14.77;8.85;;;4.70;68.00;;;;;;5037472;28;20041;-68
2023/03/02 02:12:22;;;;;;;15.48;8.43;;;4.70;68.20;;;;;;5034096;28;20021;-68
2023/03/02 02:14:48;;;;;;;15.20;8.85;;;4.70;68.20;;;;;;5033091;28;20096;-69
2023/03/02 02:17:16;;;;;;;15.85;8.90;;;4.60;68.30;;;;;;5032029;28;20546;-63
2023/03/02 02:19:54;;;;;;;12.23;7.05;;;4.70;68.30;;;;;;5036101;28;20059;-63
2023/03/02 02:22:43;;;;;;;10.98;7.82;;;4.60;68.10;;;;;;5028758;28;20036;-63
2023/03/02 02:25:35;;;;;;;12.93;8.18;;;4.70;68.00;;;;;;5030566;28;20026;-63
2023/03/02 02:28:07;;;;;;;11.48;7.18;;;4.60;68.10;;;;;;5040854;28;20439;-63
2023/03/02 02:30:35;;;;;;;15.70;9.00;;;4.50;68.00;;;;;;5038536;28;20014;-62
2023/03/02 02:33:02;;;;;;;15.75;9.05;;;4.50;67.90;;;;;;5035155;28;20032;-63
2023/03/02 02:35:30;;;;;;;19.17;10.35;;;4.50;67.90;;;;;;5031406;28;20048;-62
2023/03/02 02:38:04;;;;;;;15.38;8.55;;;4.50;68.10;;;;;;5016939;28;20536;-64
2023/03/02 02:40:39;;;;;;;18.17;10.02;;;4.50;68.10;;;;;;5041784;28;20100;-64
2023/03/02 02:43:06;;;;;;;15.02;8.13;;;4.40;68.70;;;;;;5036619;28;20029;-63
2023/03/02 02:45:32;;;;;;;12.35;7.38;;;4.40;68.60;;;;;;5029578;28;20030;-62
2023/03/02 02:47:58;;;;;;;16.52;9.02;;;4.40;68.80;;;;;;5032022;28;20063;-63
2023/03/02 02:50:29;;;;;;;18.17;8.15;;;4.30;68.60;;;;;;5037409;28;20431;-63
2023/03/02 02:53:02;;;;;;;14.40;7.95;;;4.30;68.70;;;;;;5029489;28;20037;-67
2023/03/02 02:55:31;;;;;;;17.52;10.13;;;4.30;68.60;;;;;;5035625;28;20059;-68
2023/03/02 02:57:59;;;;;;;12.48;7.63;;;4.20;68.70;;;;;;5025688;28;20113;-63
2023/03/02 03:00:26;;;;;;;17.67;9.18;;;4.20;68.90;;;;;;5036318;28;20033;-70
2023/03/02 03:03:28;;;;;;;18.02;9.82;;;4.20;68.90;;;;;;5030635;28;20432;-68
2023/03/02 03:05:56;;;;;;;12.25;8.68;;;4.20;68.90;;;;;;5015249;28;20049;-68
2023/03/02 03:08:42;;;;;;;18.83;11.05;;;4.10;69.20;;;;;;5028547;28;20033;-68
2023/03/02 03:11:10;;;;;;;16.30;8.73;;;4.10;69.20;;;;;;5028659;28;20367;-69
2023/03/02 03:13:37;;;;;;;17.45;10.25;;;4.10;69.20;;;;;;5039289;28;20120;-68
2023/03/02 03:16:05;;;;;;;15.90;8.38;;;4.00;69.20;;;;;;5046503;28;20087;-68
2023/03/02 03:18:31;;;;;;;17.25;9.13;;;4.00;69.40;;;;;;5041637;28;20033;-67
2023/03/02 03:20:57;;;;;;;12.00;8.52;;;4.00;69.60;;;;;;5042649;28;20029;-63
2023/03/02 03:23:23;;;;;;;15.90;8.57;;;4.00;69.80;;;;;;5029749;28;20068;-63
2023/03/02 03:25:49;;;;;;;19.92;10.43;;;3.90;69.90;;;;;;5019964;28;20052;-67
2023/03/02 03:28:15;;;;;;;19.27;9.45;;;3.90;70.10;;;;;;5043661;28;20091;-62
2023/03/02 03:30:41;;;;;;;13.90;8.90;;;3.90;70.00;;;;;;5037599;28;20029;-68
2023/03/02 03:33:13;;;;;;;16.60;9.55;;;3.90;70.00;;;;;;5012436;28;20219;-68
2023/03/02 03:35:39;;;;;;;13.57;8.52;;;3.90;70.10;;;;;;5012447;28;20022;-69
2023/03/02 03:38:06;;;;;;;21.13;9.75;;;3.80;69.90;;;;;;5027817;28;20083;-62
2023/03/02 03:40:33;;;;;;;14.55;8.15;;;3.80;70.00;;;;;;5030657;28;20488;-62
2023/03/02 03:43:03;;;;;;;22.30;11.13;;;3.80;70.20;;;;;;5026512;28;20506;-62
2023/03/02 03:45:29;;;;;;;16.45;9.43;;;3.80;70.40;;;;;;5030479;28;20057;-62
2023/03/02 03:47:55;;;;;;;14.05;9.02;;;3.70;70.60;;;;;;5031020;28;20040;-63
2023/03/02 03:50:21;;;;;;;13.70;7.85;;;3.70;70.50;;;;;;5030791;28;20017;-62
2023/03/02 03:52:47;;;;;;;16.77;9.23;;;3.70;70.40;;;;;;5011978;28;20029;-63
2023/03/02 03:55:13;;;;;;;14.05;8.05;;;3.70;70.50;;;;;;5029742;28;20032;-63
2023/03/02 03:57:39;;;;;;;17.33;8.10;;;3.70;70.60;;;;;;5030208;28;20037;-63
2023/03/02 04:00:09;;;;;;;17.73;8.80;;;3.70;70.50;;;;;;5031491;28;20397;-62
2023/03/02 04:02:36;;;;;;;14.30;9.13;;;3.70;70.50;;;;;;5012485;28;20068;-62
2023/03/02 04:05:05;;;;;;;20.27;9.82;;;3.70;70.70;;;;;;5002250;28;20034;-62
2023/03/02 04:07:35;;;;;;;13.48;7.82;;;3.70;70.50;;;;;;5026517;28;20053;-68
2023/03/02 04:10:04;;;;;;;16.70;9.90;;;3.70;70.50;;;;;;5033095;28;20025;-68
2023/03/02 04:12:35;;;;;;;16.98;9.20;;;3.70;70.60;;;;;;5013207;28;20025;-63
2023/03/02 04:15:02;;;;;;;19.60;10.35;;;3.70;70.60;;;;;;5031227;28;20079;-69
2023/03/02 04:17:28;;;;;;;12.73;7.38;;;3.70;71.20;;;;;;5029643;28;20026;-69
2023/03/02 04:19:54;;;;;;;15.45;9.38;;;3.60;70.80;;;;;;5015348;28;20040;-63
2023/03/02 04:22:20;;;;;;;14.07;8.90;;;3.60;70.80;;;;;;5032242;28;20416;-63
2023/03/02 04:24:48;;;;;;;16.05;9.27;;;3.60;70.90;;;;;;5027231;28;20026;-69
2023/03/02 04:27:14;;;;;;;17.52;10.68;;;3.50;71.20;;;;;;5029071;28;20523;-69
2023/03/02 04:29:42;;;;;;;15.90;9.02;;;3.50;71.20;;;;;;5011413;28;20396;-63
2023/03/02 04:32:09;;;;;;;22.85;11.68;;;3.50;71.40;;;;;;5032495;28;20045;-63
2023/03/02 04:34:35;;;;;;;15.23;8.68;;;3.50;71.40;;;;;;5020556;28;20045;-65
2023/03/02 04:37:01;;;;;;;20.88;9.98;;;3.40;71.30;;;;;;5010863;28;20435;-66
2023/03/02 04:39:27;;;;;;;13.32;8.02;;;3.50;71.50;;;;;;5037055;28;20118;-65
2023/03/02 04:41:53;;;;;;;22.27;9.50;;;3.50;71.50;;;;;;5009967;28;20535;-67
2023/03/02 04:44:20;;;;;;;14.88;9.13;;;3.50;71.40;;;;;;5029137;28;20420;-64
2023/03/02 04:46:47;;;;;;;17.98;9.73;;;3.50;72.00;;;;;;5028764;28;20027;-66
2023/03/02 04:49:15;;;;;;;16.50;9.48;;;3.40;71.40;;;;;;5010217;28;20091;-63
2023/03/02 04:51:43;;;;;;;16.70;9.65;;;3.40;71.50;;;;;;5030005;28;20479;-63
2023/03/02 04:54:24;;;;;;;14.68;8.10;;;3.40;71.50;;;;;;4996577;28;20465;-64
2023/03/02 04:56:51;;;;;;;13.45;7.82;;;3.40;71.40;;;;;;5024872;28;20048;-63
2023/03/02 04:59:19;;;;;;;18.08;9.10;;;3.40;71.30;;;;;;5026228;28;20039;-63
2023/03/02 05:01:45;;;;;;;20.65;9.55;;;3.40;71.40;;;;;;5006629;28;20164;-63
2023/03/02 05:04:12;;;;;;;13.55;8.18;;;3.30;71.60;;;;;;5023970;28;20013;-63
2023/03/02 05:06:38;;;;;;;21.77;8.55;;;3.30;71.60;;;;;;5030041;28;20395;-63
2023/03/02 05:09:04;;;;;;;13.60;7.75;;;3.30;71.60;;;;;;5024374;28;20068;-63
2023/03/02 05:11:31;;;;;;;13.75;7.53;;;3.30;71.60;;;;;;5013251;28;20374;-64
2023/03/02 05:14:00;;;;;;;14.82;8.35;;;3.30;71.40;;;;;;5002102;28;20116;-63
2023/03/02 05:16:28;;;;;;;17.70;9.35;;;3.20;71.40;;;;;;5030147;28;20074;-64
2023/03/02 05:18:54;;;;;;;14.95;9.10;;;3.30;71.40;;;;;;5029195;28;20037;-64
2023/03/02 05:21:20;;;;;;;15.80;8.45;;;3.20;71.20;;;;;;5030365;28;20036;-63
2023/03/02 05:23:46;;;;;;;17.13;9.18;;;3.20;71.30;;;;;;5025987;28;20033;-68
2023/03/02 05:26:13;;;;;;;13.82;7.93;;;3.20;71.30;;;;;;5001838;28;20049;-68
2023/03/02 05:28:39;;;;;;;20.35;8.88;;;3.20;71.30;;;;;;5038753;28;20073;-68
2023/03/02 05:31:05;;;;;;;18.40;9.13;;;3.20;71.20;;;;;;5037837;28;20044;-68
2023/03/02 05:33:31;;;;;;;15.75;8.35;;;3.20;71.30;;;;;;5030794;28;20030;-68
2023/03/02 05:35:57;;;;;;;20.23;7.65;;;3.20;71.40;;;;;;5018583;28;20026;-68
2023/03/02 05:38:23;;;;;;;18.60;8.90;;;3.20;71.30;;;;;;5039088;28;20037;-69
2023/03/02 05:40:49;;;;;;;16.88;8.38;;;3.10;71.30;;;;;;5006563;28;20128;-68
2023/03/02 05:43:17;;;;;;;16.33;8.00;;;3.10;71.40;;;;;;5017588;28;20476;-63
2023/03/02 05:45:43;;;;;;;12.50;7.85;;;3.10;71.30;;;;;;5013715;28;20048;-63
2023/03/02 05:48:11;;;;;;;16.40;8.15;;;3.10;71.40;;;;;;5017421;28;20541;-64
2023/03/02 05:50:37;;;;;;;17.40;8.73;;;3.10;71.50;;;;;;5012675;28;20390;-62
2023/03/02 05:53:03;;;;;;;17.30;9.27;;;3.00;71.40;;;;;;5017806;28;20026;-69
2023/03/02 05:55:29;;;;;;;14.70;8.43;;;3.00;71.40;;;;;;5015340;28;20083;-69
2023/03/02 05:57:55;;;;;;;14.95;8.73;;;3.00;71.40;;;;;;5012378;28;20026;-68
2023/03/02 06:00:21;;;;;;;13.88;7.28;;;3.00;71.60;;;;;;5017187;28;20096;-69
2023/03/02 06:02:47;;;;;;;18.83;9.18;;;2.90;71.70;;;;;;5018136;28;20026;-68
2023/03/02 06:05:16;;;;;;;13.90;8.10;;;2.90;71.70;;;;;;5006196;28;20073;-68
2023/03/02 06:07:42;;;;;;;15.25;8.82;;;2.90;71.70;;;;;;4992359;28;20038;-68
2023/03/02 06:10:09;;;;;;;13.20;8.20;;;2.90;71.70;;;;;;5017050;28;20438;-68
2023/03/02 06:12:35;;;;;;;13.10;7.70;;;2.90;71.70;;;;;;5011043;28;20787;-68
2023/03/02 06:15:02;;;;;;;11.23;7.28;;;2.90;71.70;;;;;;4993639;28;20037;-63
2023/03/02 06:17:27;;;;;;;20.88;8.93;;;2.90;71.70;;;;;;5010250;28;20101;-63
2023/03/02 06:19:53;;;;;;;17.38;8.52;;;2.90;71.80;;;;;;5023269;28;20113;-63
2023/03/02 06:22:19;;;;;;;14.32;8.88;;;2.90;71.80;;;;;;5028587;28;20395;-68
2023/03/02 06:24:45;;;;;;;14.48;8.60;;;2.80;71.90;;;;;;5030084;28;20500;-69
2023/03/02 06:27:12;;;;;;;14.27;9.23;;;2.80;71.90;;;;;;5029393;28;20083;-68
2023/03/02 06:29:38;;;;;;;14.68;8.38;;;2.80;71.90;;;;;;5016695;28;20564;-64
2023/03/02 06:32:04;;;;;;;15.93;8.90;;;2.80;72.10;;;;;;5010461;28;20029;-64
2023/03/02 06:34:30;;;;;;;16.17;8.23;;;2.80;72.00;;;;;;5036067;28;20021;-69
2023/03/02 06:36:56;;;;;;;17.17;9.13;;;2.80;71.90;;;;;;5009800;28;20389;-62
2023/03/02 06:39:22;;;;;;;22.48;9.60;;;2.80;71.80;;;;;;5034883;28;20029;-63
2023/03/02 06:41:48;;;;;;;29.10;9.48;;;2.80;71.70;;;;;;5030543;28;20065;-61
2023/03/02 06:44:16;;;;;;;14.00;7.20;;;2.90;71.60;;;;;;5033807;28;20075;-68
2023/03/02 06:46:42;;;;;;;15.38;7.65;;;2.90;71.50;;;;;;5028100;28;20414;-62
2023/03/02 06:49:09;;;;;;;13.45;7.40;;;2.90;71.40;;;;;;5033973;28;20029;-63
2023/03/02 06:51:35;;;;;;;12.45;6.90;;;2.90;71.30;;;;;;5031886;28;20367;-63
2023/03/02 06:54:02;;;;;;;11.07;8.27;;;3.00;71.10;;;;;;5034602;28;20147;-69
2023/03/02 06:56:27;;;;;;;17.35;7.07;;;3.00;70.90;;;;;;5026789;28;20038;-63
2023/03/02 06:58:53;;;;;;;13.50;6.07;;;3.10;71.00;;;;;;5033220;28;20033;-64
2023/03/02 07:01:19;;;;;;;17.13;7.97;;;3.10;70.80;;;;;;5013243;28;20409;-63
2023/03/02 07:03:45;;;;;;;13.80;7.32;;;3.10;70.80;;;;;;5037873;28;20373;-64
2023/03/02 07:06:12;;;;;;;13.50;8.65;;;3.10;70.50;;;;;;5033380;28;20041;-63
2023/03/02 07:08:38;;;;;;;15.07;7.22;;;3.20;70.40;;;;;;5039038;28;20079;-63
2023/03/02 07:11:12;;;;;;;16.52;7.45;;;3.20;70.40;;;;;;5031764;28;20033;-63
2023/03/02 07:13:39;;;;;;;16.70;6.88;;;3.20;70.20;;;;;;5034380;28;20017;-62
2023/03/02 07:16:09;;;;;;;17.15;7.50;;;3.20;70.20;;;;;;5036815;28;20025;-63
2023/03/02 07:18:35;;;;;;;9.55;7.15;;;3.20;70.20;;;;;;5040857;28;20072;-63
2023/03/02 07:21:01;;;;;;;13.02;6.78;;;3.20;70.10;;;;;;5034197;28;20056;-62
2023/03/02 07:23:27;;;;;;;13.38;6.85;;;3.30;70.00;;;;;;5040256;28;20312;-67
2023/03/02 07:25:52;;;;;;;12.05;7.35;;;3.30;70.10;;;;;;5041473;28;20023;-68
2023/03/02 07:28:20;;;;;;;16.65;7.75;;;3.40;70.10;;;;;;5040123;28;20547;-68
2023/03/02 07:30:46;;;;;;;15.85;7.13;;;3.40;70.10;;;;;;5015966;28;20129;-67
2023/03/02 07:33:12;;;;;;;14.25;7.70;;;3.40;70.10;;;;;;5022458;28;20120;-68
2023/03/02 07:35:37;;;;;;;15.55;7.88;;;3.50;70.10;;;;;;5022618;28;20415;-68
2023/03/02 07:38:03;;;;;;;9.20;6.03;;;3.50;70.00;;;;;;5018642;28;20555;-69
2023/03/02 07:40:29;;;;;;;14.32;7.47;;;3.50;69.90;;;;;;5015057;28;20029;-63
2023/03/02 07:42:55;;;;;;;16.52;7.43;;;3.60;69.80;;;;;;5015996;28;20365;-64
2023/03/02 07:45:23;;;;;;;16.38;7.15;;;3.60;69.60;;;;;;5032501;28;20038;-69
2023/03/02 07:47:49;;;;;;;19.10;8.15;;;3.70;69.50;;;;;;5016718;28;20034;-64
2023/03/02 07:50:15;;;;;;;12.25;7.97;;;3.70;69.40;;;;;;5017813;28;20810;-64
2023/03/02 07:52:41;;;;;;;15.70;8.23;;;3.70;69.50;;;;;;5016814;28;20057;-65
2023/03/02 07:55:08;;;;;;;16.55;8.90;;;3.80;69.70;;;;;;5028687;28;20037;-64
2023/03/02 07:57:33;;;;;;;14.13;6.93;;;3.90;69.70;;;;;;5023510;28;20037;-67
2023/03/02 07:59:59;;;;;;;11.98;7.25;;;3.90;69.70;;;;;;5008167;28;20037;-65
2023/03/02 08:02:25;;;;;;;10.48;6.40;;;4.00;69.60;;;;;;5030550;28;20098;-65
2023/03/02 08:04:53;;;;;;;13.00;7.03;;;4.00;69.40;;;;;;5012168;28;20018;-65
2023/03/02 08:07:19;;;;;;;13.32;7.07;;;4.10;69.50;;;;;;5034550;28;20643;-66
2023/03/02 08:09:45;;;;;;;13.70;6.45;;;4.10;69.30;;;;;;5017086;28;20029;-64
2023/03/02 08:12:10;;;;;;;10.85;6.60;;;4.20;69.30;;;;;;5030641;28;20360;-64
2023/03/02 08:14:36;;;;;;;11.25;6.22;;;4.20;69.20;;;;;;5029332;28;20026;-65
2023/03/02 08:17:04;;;;;;;16.80;6.63;;;4.30;69.10;;;;;;5026221;28;20389;-66
2023/03/02 08:19:30;;;;;;;9.05;5.70;;;4.40;68.90;;;;;;5026574;28;20465;-65
2023/03/02 08:21:56;;;;;;;10.57;6.30;;;4.50;68.70;;;;;;5015928;28;20036;-64
2023/03/02 08:24:22;;;;;;;11.80;6.85;;;4.60;68.60;;;;;;5012760;28;20034;-65
2023/03/02 08:26:48;;;;;;;11.68;5.25;;;4.70;68.40;;;;;;5022970;28;20331;-62
2023/03/02 08:29:13;;;;;;;11.00;6.38;;;4.80;68.20;;;;;;5022305;28;20068;-63
2023/03/02 08:31:39;;;;;;;13.40;5.45;;;4.80;68.00;;;;;;5025863;28;20026;-66
2023/03/02 08:34:05;;;;;;;9.57;5.40;;;4.90;68.00;;;;;;5011320;28;20021;-67
2023/03/02 08:36:30;;;;;;;12.45;6.15;;;5.00;68.00;;;;;;4985910;28;20456;-70
2023/03/02 08:38:56;;;;;;;11.90;5.15;;;5.10;67.80;;;;;;5012855;28;20096;-65
2023/03/02 08:41:22;;;;;;;13.45;5.88;;;5.20;67.60;;;;;;5022110;28;20113;-68
2023/03/02 08:43:49;;;;;;;9.55;5.90;;;5.20;67.40;;;;;;5024183;28;20108;-65
2023/03/02 08:46:17;;;;;;;11.88;5.38;;;5.30;67.30;;;;;;5006513;28;20030;-66
2023/03/02 08:48:43;;;;;;;13.07;6.50;;;5.40;67.10;;;;;;5007966;28;20032;-63
2023/03/02 08:51:13;;;;;;;7.10;4.70;;;5.40;67.10;;;;;;5025505;28;20026;-64
2023/03/02 08:53:45;;;;;;;14.85;7.00;;;5.50;67.00;;;;;;5024279;28;20057;-68
2023/03/02 08:56:31;;;;;;;10.73;5.97;;;5.60;66.80;;;;;;5030704;28;20075;-68
2023/03/02 08:59:00;;;;;;;16.23;7.38;;;5.60;66.60;;;;;;5023275;28;20456;-69
2023/03/02 09:01:28;;;;;;;14.65;7.07;;;5.70;66.40;;;;;;5026228;28;20061;-68
2023/03/02 09:03:55;;;;;;;16.90;7.65;;;5.80;66.50;;;;;;5013880;28;20029;-69
2023/03/02 09:06:20;;;;;;;11.85;6.75;;;5.90;66.50;;;;;;5024914;28;20033;-69
2023/03/02 09:08:47;;;;;;;12.50;6.28;;;5.90;66.20;;;;;;5027123;28;20040;-68
2023/03/02 09:11:13;;;;;;;8.85;5.25;;;6.00;66.10;;;;;;5030969;28;20473;-68
2023/03/02 09:13:39;;;;;;;14.32;6.97;;;6.10;66.10;;;;;;5008308;28;20047;-68
2023/03/02 09:16:05;;;;;;;10.00;6.05;;;6.30;65.80;;;;;;5022574;28;20439;-70
2023/03/02 09:18:31;;;;;;;14.02;6.22;;;6.40;65.60;;;;;;5023822;28;20124;-64
2023/03/02 09:20:57;;;;;;;13.25;6.63;;;6.50;65.40;;;;;;4994831;28;20671;-63
2023/03/02 09:23:24;;;;;;;12.15;6.43;;;6.70;65.10;;;;;;5032400;28;20906;-64
2023/03/02 09:25:51;;;;;;;13.82;6.97;;;6.80;64.80;;;;;;5024369;28;20017;-64
2023/03/02 09:28:17;;;;;;;11.35;6.97;;;7.00;64.50;;;;;;5023214;28;20447;-64
2023/03/02 09:30:55;;;;;;;13.95;6.15;;;7.10;64.10;;;;;;5022801;28;20030;-64
2023/03/02 09:33:21;;;;;;;11.82;6.93;;;7.20;63.90;;;;;;4997252;28;20069;-64
2023/03/02 09:35:47;;;;;;;14.25;7.30;;;7.30;63.70;;;;;;5006197;28;20025;-63
2023/03/02 09:38:17;;;;;;;12.38;6.05;;;7.30;63.60;;;;;;5032089;28;20042;-63
2023/03/02 09:40:50;;;;;;;13.50;5.65;;;7.40;63.70;;;;;;5016205;28;20472;-63
2023/03/02 09:43:25;;;;;;;12.50;7.85;;;7.40;63.70;;;;;;5026341;28;20026;-63
2023/03/02 09:46:15;;;;;;;10.27;5.82;;;7.50;63.50;;;;;;5039466;28;20035;-69
2023/03/02 09:49:24;;;;;;;11.27;5.88;;;7.70;63.00;;;;;;5011043;28;20017;-70
2023/03/02 09:52:04;;;;;;;8.50;6.28;;;7.80;62.70;;;;;;5010947;28;20033;-70
2023/03/02 09:54:31;;;;;;;10.48;6.35;;;7.90;62.40;;;;;;5025508;28;20072;-70
2023/03/02 09:56:58;;;;;;;12.50;6.03;;;8.00;62.10;;;;;;5034889;28;20025;-70
2023/03/02 09:59:40;;;;;;;9.00;4.50;;;8.20;62.00;;;;;;5010302;28;20030;-70
2023/03/02 10:02:27;;;;;;;8.68;5.60;;;8.30;62.00;;;;;;5032692;28;20058;-70
2023/03/02 10:04:58;;;;;;;7.90;4.70;;;8.50;61.70;;;;;;5039132;28;20368;-70
2023/03/02 10:07:35;;;;;;;8.80;4.78;;;8.60;61.20;;;;;;5031150;28;20124;-71
2023/03/02 10:10:25;;;;;;;9.98;4.80;;;8.80;60.90;;;;;;5026182;28;20980;-71
2023/03/02 10:13:13;;;;;;;15.13;5.80;;;9.00;60.30;;;;;;5029370;28;20021;-70
2023/03/02 10:16:18;;;;;;;11.30;4.70;;;9.10;59.80;;;;;;4983411;28;20037;-71
2023/03/02 10:18:54;;;;;;;8.57;4.95;;;9.10;58.90;;;;;;5024926;28;20040;-70
2023/03/02 10:21:26;;;;;;;9.90;4.97;;;9.20;58.90;;;;;;5048063;28;20021;-71
2023/03/02 10:24:25;;;;;;;10.90;5.40;;;9.30;58.70;;;;;;5040989;28;20056;-70
2023/03/02 10:26:54;;;;;;;8.23;4.57;;;9.50;58.10;;;;;;5041833;28;20377;-70
2023/03/02 10:29:34;;;;;;;9.55;3.85;;;9.60;57.50;;;;;;5042830;28;20082;-70
2023/03/02 10:32:20;;;;;;;9.45;3.60;;;9.70;57.10;;;;;;5033872;28;20029;-63
2023/03/02 10:34:48;;;;;;;8.80;3.63;;;9.90;56.80;;;;;;5032498;28;20064;-64
2023/03/02 10:37:18;;;;;;;8.93;4.50;;;10.00;56.80;;;;;;5032212;28;20436;-64
2023/03/02 10:39:44;;;;;;;10.00;4.32;;;10.20;56.10;;;;;;5021993;28;20521;-63
2023/03/02 10:42:35;;;;;;;8.40;3.85;;;10.30;55.70;;;;;;5033765;28;20034;-64
2023/03/02 10:45:25;;;;;;;9.52;4.32;;;10.40;55.30;;;;;;5011405;28;20117;-71
2023/03/02 10:48:06;;;;;;;8.07;4.10;;;10.50;54.90;;;;;;5035536;28;20104;-71
2023/03/02 10:50:32;;;;;;;7.25;4.45;;;10.70;54.20;;;;;;5023426;28;20477;-69
2023/03/02 10:52:58;;;;;;;7.35;3.92;;;10.80;54.00;;;;;;5033471;28;20026;-71
2023/03/02 10:55:24;;;;;;;5.18;3.03;;;11.00;53.60;;;;;;5019338;28;20042;-70
2023/03/02 10:57:59;;;;;;;9.95;4.88;;;11.20;53.70;;;;;;5024137;28;20518;-70
2023/03/02 11:00:28;;;;;;;6.22;3.13;;;11.40;53.10;;;;;;5019343;28;20045;-69
2023/03/02 11:03:18;;;;;;;10.38;3.83;;;11.60;53.00;;;;;;4995310;28;20032;-69
2023/03/02 11:05:44;;;;;;;6.72;3.08;;;11.70;52.60;;;;;;5028126;28;20022;-68
2023/03/02 11:08:18;;;;;;;12.48;5.30;;;11.90;52.60;;;;;;5022253;28;20079;-70
2023/03/02 11:10:54;;;;;;;6.70;3.33;;;11.90;52.40;;;;;;5009063;28;20501;-70
2023/03/02 11:13:26;;;;;;;7.53;3.53;;;12.00;52.50;;;;;;5027839;28;20044;-64
2023/03/02 11:16:00;;;;;;;9.20;3.85;;;12.10;52.40;;;;;;5009214;28;20499;-64
2023/03/02 11:18:35;;;;;;;5.03;3.33;;;12.20;52.20;;;;;;5011015;28;20040;-63
2023/03/02 11:21:09;;;;;;;6.50;3.25;;;12.30;52.20;;;;;;5002300;28;20092;-63
2023/03/02 11:23:43;;;;;;;6.28;3.20;;;12.40;51.50;;;;;;5022753;28;20030;-63
2023/03/02 11:26:12;;;;;;;9.02;3.55;;;12.50;51.40;;;;;;5019832;28;20792;-62
2023/03/02 11:28:50;;;;;;;7.90;3.97;;;12.60;51.10;;;;;;5026358;28;20025;-63
2023/03/02 11:31:25;;;;;;;9.30;3.80;;;12.70;50.80;;;;;;5030426;28;20534;-64
2023/03/02 11:34:28;;;;;;;4.95;3.20;;;12.70;50.70;;;;;;5029346;28;20096;-70
2023/03/02 11:37:12;;;;;;;;;;;12.90;50.30;;;;;;5028060;28;20135;-70
2023/03/02 11:39:47;;;;;;;6.63;3.78;;;13.00;49.80;;;;;;5028757;28;19909;-70
2023/03/02 11:42:39;;;;;;;9.90;3.55;;;13.10;50.10;;;;;;5012832;28;20029;-70
2023/03/02 11:45:14;;;;;;;9.48;3.45;;;13.30;50.60;;;;;;5026463;28;20022;-70
2023/03/02 11:48:38;;;;;;;7.60;3.95;;;13.40;49.90;;;;;;5027707;28;20633;-69
2023/03/02 11:51:10;;;;;;;6.53;3.63;;;13.70;49.40;;;;;;5002777;28;20112;-69
2023/03/02 11:53:45;;;;;;;;;;;13.70;49.10;;;;;;5031639;28;20056;-70
2023/03/02 11:56:11;;;;;;;4.70;3.03;;;13.70;49.00;;;;;;5032858;28;19911;-70
2023/03/02 11:58:37;;;;;;;6.03;3.10;;;13.80;48.70;;;;;;5027633;28;20034;-69
2023/03/02 12:01:03;;;;;;;5.25;2.53;;;13.90;48.40;;;;;;5029330;28;20021;-69
2023/03/02 12:03:32;;;;;;;7.28;3.63;;;14.10;48.40;;;;;;5010882;28;20112;-70
2023/03/02 12:05:59;;;;;;;6.20;3.55;;;14.10;47.90;;;;;;5026294;28;20028;-70
2023/03/02 12:08:30;;;;;;;7.28;3.67;;;14.30;47.80;;;;;;5022935;28;20022;-69
2023/03/02 12:11:00;;;;;;;5.90;3.45;;;14.50;47.70;;;;;;5031150;28;20104;-63
2023/03/02 12:13:37;;;;;;;9.00;3.80;;;14.60;47.30;;;;;;5036760;28;20445;-69
2023/03/02 12:16:22;;;;;;;6.43;2.85;;;14.60;46.90;;;;;;5027643;28;20044;-69
2023/03/02 12:18:51;;;;;;;4.90;2.92;;;14.70;46.50;;;;;;5024010;28;20542;-69
2023/03/02 12:21:20;;;;;;;4.70;2.65;;;14.80;46.30;;;;;;5028723;28;20029;-69
2023/03/02 12:23:46;;;;;;;10.10;3.42;;;14.80;46.20;;;;;;5016440;28;20038;-70
2023/03/02 12:26:36;;;;;;;9.48;3.50;;;14.90;45.70;;;;;;5032554;28;20029;-63
2023/03/02 12:29:09;;;;;;;5.35;2.58;;;15.00;45.30;;;;;;5011686;28;20446;-64
2023/03/02 12:31:46;;;;;;;5.70;3.13;;;15.20;45.00;;;;;;5025439;28;20028;-64
2023/03/02 12:34:37;;;;;;;6.53;3.75;;;15.30;44.70;;;;;;5021097;28;20861;-63
2023/03/02 12:37:29;;;;;;;7.00;3.33;;;15.40;44.70;;;;;;5024776;28;20394;-64
2023/03/02 12:40:24;;;;;;;7.28;3.65;;;15.50;44.60;;;;;;5026523;28;20036;-64
2023/03/02 12:43:21;;;;;;;6.35;3.47;;;15.30;44.40;;;;;;5006228;28;20444;-64
2023/03/02 12:45:58;;;;;;;4.35;2.83;;;15.30;44.70;;;;;;5010086;28;20031;-64
2023/03/02 12:48:41;;;;;;;4.72;2.78;;;15.30;44.70;;;;;;5036158;28;20029;-64
2023/03/02 12:51:13;;;;;;;;;;;15.40;44.00;;;;;;5028718;28;20025;-64
2023/03/02 12:53:39;;;;;;;8.45;4.15;;;15.50;43.70;;;;;;5029084;28;19916;-64
2023/03/02 12:56:07;;;;;;;5.75;2.53;;;15.50;44.00;;;;;;5028425;28;20033;-63
2023/03/02 12:58:33;;;;;;;7.65;3.22;;;15.60;43.80;;;;;;5024772;28;20038;-64
2023/03/02 13:01:01;;;;;;;8.20;4.30;;;15.50;43.70;;;;;;5025780;28;20026;-69
2023/03/02 13:03:29;;;;;;;6.78;2.95;;;15.70;43.60;;;;;;5026258;28;20029;-63